createdAt,value
2023-03-22T00:01:31.088Z,27.03
2023-03-22T00:03:59.785Z,24.23
2023-03-22T00:06:28.241Z,23.87
2023-03-22T00:08:56.531Z,24.40
2023-03-22T00:11:26.518Z,27.57
2023-03-22T00:13:55.119Z,24.80
2023-03-22T00:16:23.592Z,23.90
2023-03-22T00:18:51.886Z,18.80
2023-03-22T00:21:20.222Z,23.20
2023-03-22T00:23:48.607Z,23.73
2023-03-22T00:26:16.756Z,22.20
2023-03-22T00:28:46.559Z,24.50
2023-03-22T00:31:15.862Z,21.67
2023-03-22T00:33:44.259Z,22.13
2023-03-22T00:36:13.366Z,19.83
2023-03-22T00:38:43.459Z,22.00
2023-03-22T00:41:15.990Z,27.83
2023-03-22T00:43:48.335Z,25.10
2023-03-22T00:46:17.897Z,21.10
2023-03-22T00:48:46.442Z,21.47
2023-03-22T00:51:15.878Z,22.73
2023-03-22T00:53:44.849Z,21.83
2023-03-22T00:56:15.810Z,20.97
2023-03-22T00:59:08.474Z,22.03
2023-03-22T01:01:36.731Z,19.93
2023-03-22T01:04:05.539Z,19.40
2023-03-22T01:06:33.930Z,22.90
2023-03-22T01:09:02.582Z,22.37
2023-03-22T01:11:30.787Z,20.70
2023-03-22T01:13:59.600Z,20.67
2023-03-22T01:16:29.104Z,26.67
2023-03-22T01:18:57.380Z,24.93
2023-03-22T01:21:25.840Z,27.33
2023-03-22T01:23:54.363Z,21.77
2023-03-22T01:26:22.546Z,30.17
2023-03-22T01:28:51.249Z,23.30
2023-03-22T01:31:19.425Z,26.23
2023-03-22T01:33:49.275Z,24.17
2023-03-22T01:36:17.407Z,29.27
2023-03-22T01:38:45.900Z,30.53
2023-03-22T01:41:14.215Z,27.17
2023-03-22T01:43:43.852Z,34.10
2023-03-22T01:46:12.977Z,31.20
2023-03-22T01:48:46.105Z,30.47
2023-03-22T01:51:19.798Z,29.70
2023-03-22T01:54:22.843Z,31.47
2023-03-22T01:56:51.786Z,27.77
2023-03-22T01:59:30.607Z,25.80
2023-03-22T02:02:22.119Z,21.97
2023-03-22T02:04:58.898Z,30.00
2023-03-22T02:07:31.811Z,26.70
2023-03-22T02:10:01.701Z,24.30
2023-03-22T02:12:52.556Z,25.10
2023-03-22T02:15:42.919Z,26.83
2023-03-22T02:18:51.938Z,22.30
2023-03-22T02:21:39.780Z,22.93
2023-03-22T02:24:46.071Z,25.87
2023-03-22T02:27:26.713Z,26.70
2023-03-22T02:30:07.072Z,24.30
2023-03-22T02:33:07.327Z,28.53
2023-03-22T02:35:50.451Z,43.03
2023-03-22T02:38:58.977Z,34.07
2023-03-22T02:41:37.346Z,47.83
2023-03-22T02:44:11.137Z,57.00
2023-03-22T02:46:45.976Z,47.10
2023-03-22T02:49:21.039Z,40.00
2023-03-22T02:51:54.674Z,25.37
2023-03-22T02:54:29.996Z,22.03
2023-03-22T02:57:03.589Z,22.90
2023-03-22T02:59:34.728Z,23.13
2023-03-22T03:02:04.645Z,20.43
2023-03-22T03:04:37.438Z,22.00
2023-03-22T03:07:10.323Z,22.63
2023-03-22T03:09:42.294Z,28.30
2023-03-22T03:12:15.996Z,20.43
2023-03-22T03:14:44.260Z,25.80
2023-03-22T03:17:24.254Z,23.57
2023-03-22T03:20:07.955Z,22.90
2023-03-22T03:22:47.564Z,22.87
2023-03-22T03:25:26.576Z,27.43
2023-03-22T03:28:03.529Z,23.60
2023-03-22T03:30:38.982Z,22.47
2023-03-22T03:33:10.603Z,23.10
2023-03-22T03:35:45.388Z,21.37
2023-03-22T03:38:17.478Z,24.00
2023-03-22T03:40:51.545Z,24.57
2023-03-22T03:43:20.671Z,28.83
2023-03-22T03:45:49.006Z,28.80
2023-03-22T03:48:22.469Z,26.57
2023-03-22T03:50:53.948Z,21.83
2023-03-22T03:53:22.381Z,26.93
2023-03-22T03:55:51.875Z,28.67
2023-03-22T03:58:20.161Z,26.23
2023-03-22T04:00:50.217Z,23.73
2023-03-22T04:03:37.791Z,24.77
2023-03-22T04:06:25.888Z,30.13
2023-03-22T04:08:58.601Z,22.50
2023-03-22T04:11:33.700Z,25.43
2023-03-22T04:14:04.260Z,22.47
2023-03-22T04:16:32.637Z,23.93
2023-03-22T04:19:00.880Z,26.23
2023-03-22T04:21:29.202Z,21.87
2023-03-22T04:23:59.633Z,23.13
2023-03-22T04:26:30.871Z,28.00
2023-03-22T04:29:24.693Z,27.30
2023-03-22T04:31:58.716Z,27.80
2023-03-22T04:34:36.817Z,27.90
2023-03-22T04:37:08.089Z,26.77
2023-03-22T04:39:39.394Z,31.20
2023-03-22T04:42:34.087Z,24.93
2023-03-22T04:45:15.500Z,28.23
2023-03-22T04:47:47.462Z,33.83
2023-03-22T04:50:15.763Z,28.57
2023-03-22T04:52:58.456Z,24.60
2023-03-22T04:55:27.685Z,28.13
2023-03-22T04:57:55.980Z,28.90
2023-03-22T05:00:30.062Z,31.00
2023-03-22T05:02:59.362Z,23.43
2023-03-22T05:05:34.372Z,28.87
2023-03-22T05:08:04.328Z,27.60
2023-03-22T05:10:32.493Z,25.40
2023-03-22T05:13:00.636Z,19.83
2023-03-22T05:15:34.598Z,25.27
2023-03-22T05:18:05.149Z,23.30
2023-03-22T05:20:33.521Z,27.73
2023-03-22T05:23:11.603Z,25.30
2023-03-22T05:25:45.065Z,27.70
2023-03-22T05:28:15.415Z,20.07
2023-03-22T05:30:49.389Z,22.93
2023-03-22T05:33:28.056Z,25.37
2023-03-22T05:35:58.157Z,24.63
2023-03-22T05:38:28.675Z,24.47
2023-03-22T05:40:59.945Z,27.93
2023-03-22T05:43:29.485Z,25.60
2023-03-22T05:45:58.957Z,25.80
2023-03-22T05:48:40.573Z,26.47
2023-03-22T05:51:13.450Z,23.90
2023-03-22T05:53:41.757Z,28.10
2023-03-22T05:56:21.833Z,24.00
2023-03-22T05:58:50.861Z,26.80
2023-03-22T06:01:23.161Z,22.70
2023-03-22T06:04:10.749Z,26.40
2023-03-22T06:06:51.429Z,20.90
2023-03-22T06:09:50.188Z,26.03
2023-03-22T06:12:24.814Z,24.70
2023-03-22T06:15:14.092Z,24.47
2023-03-22T06:18:01.866Z,22.67
2023-03-22T06:20:35.253Z,20.17
2023-03-22T06:23:09.620Z,22.43
2023-03-22T06:25:39.909Z,25.20
2023-03-22T06:28:08.837Z,25.90
2023-03-22T06:30:38.590Z,22.83
2023-03-22T06:33:46.524Z,21.73
2023-03-22T06:36:24.643Z,20.30
2023-03-22T06:39:05.248Z,20.70
2023-03-22T06:41:33.926Z,20.63
2023-03-22T06:44:02.682Z,23.07
2023-03-22T06:46:56.666Z,23.33
2023-03-22T06:50:01.452Z,23.37
2023-03-22T06:52:49.620Z,24.00
2023-03-22T06:55:17.881Z,21.23
2023-03-22T06:57:46.047Z,19.73
2023-03-22T07:00:15.982Z,21.60
2023-03-22T07:02:44.154Z,20.10
2023-03-22T07:05:28.901Z,21.07
2023-03-22T07:07:57.091Z,23.83
2023-03-22T07:10:27.094Z,20.20
2023-03-22T07:12:55.365Z,18.87
2023-03-22T07:15:24.784Z,22.43
2023-03-22T07:18:00.698Z,18.40
2023-03-22T07:20:30.325Z,16.33
2023-03-22T07:22:58.603Z,20.83
2023-03-22T07:25:29.855Z,20.30
2023-03-22T07:28:11.418Z,18.60
2023-03-22T07:30:40.693Z,23.93
2023-03-22T07:33:11.498Z,19.43
2023-03-22T07:35:42.208Z,17.70
2023-03-22T07:38:11.466Z,18.60
2023-03-22T07:40:39.823Z,17.70
2023-03-22T07:43:12.019Z,18.33
2023-03-22T07:45:58.044Z,22.73
2023-03-22T07:48:49.074Z,18.17
2023-03-22T07:51:56.533Z,20.00
2023-03-22T07:54:33.467Z,16.20
2023-03-22T07:57:03.392Z,20.60
2023-03-22T07:59:33.740Z,19.57
2023-03-22T08:02:02.688Z,18.00
2023-03-22T08:04:36.514Z,18.60
2023-03-22T08:07:13.811Z,16.57
2023-03-22T08:09:42.877Z,16.83
2023-03-22T08:12:12.132Z,20.20
2023-03-22T08:14:41.286Z,18.63
2023-03-22T08:17:16.437Z,18.60
2023-03-22T08:19:45.306Z,14.57
2023-03-22T08:22:18.867Z,17.13
2023-03-22T08:25:14.202Z,13.93
2023-03-22T08:27:42.444Z,16.50
2023-03-22T08:30:11.837Z,16.50
2023-03-22T08:32:39.974Z,14.70
2023-03-22T08:35:09.396Z,15.50
2023-03-22T08:37:40.044Z,13.37
2023-03-22T08:40:10.338Z,14.43
2023-03-22T08:42:42.950Z,14.43
2023-03-22T08:45:11.551Z,12.73
2023-03-22T08:47:49.888Z,15.20
2023-03-22T08:50:24.324Z,13.93
2023-03-22T08:53:02.711Z,13.77
2023-03-22T08:55:35.384Z,12.87
2023-03-22T08:58:13.171Z,12.50
2023-03-22T09:00:55.799Z,13.43
2023-03-22T09:03:41.467Z,13.33
2023-03-22T09:06:11.061Z,11.60
2023-03-22T09:08:42.686Z,13.40
2023-03-22T09:11:16.647Z,11.70
2023-03-22T09:13:46.924Z,10.87
2023-03-22T09:16:15.196Z,10.07
2023-03-22T09:18:45.830Z,11.40
2023-03-22T09:21:17.912Z,9.83
2023-03-22T09:23:53.412Z,11.77
2023-03-22T09:26:27.185Z,12.67
2023-03-22T09:28:56.256Z,10.07
2023-03-22T09:31:24.942Z,11.77
2023-03-22T09:34:04.521Z,9.63
2023-03-22T09:36:34.303Z,10.57
2023-03-22T09:39:07.239Z,11.40
2023-03-22T09:41:39.772Z,11.80
2023-03-22T09:44:13.443Z,12.30
2023-03-22T09:46:45.662Z,10.37
2023-03-22T09:49:18.906Z,10.77
2023-03-22T09:51:49.666Z,11.80
2023-03-22T09:54:21.731Z,14.30
2023-03-22T09:56:54.012Z,18.00
2023-03-22T09:59:27.124Z,13.83
2023-03-22T10:02:00.055Z,12.00
2023-03-22T10:04:47.881Z,12.97
2023-03-22T10:07:27.354Z,11.30
2023-03-22T10:10:07.985Z,14.50
2023-03-22T10:12:43.736Z,14.00
2023-03-22T10:15:15.053Z,13.43
2023-03-22T10:17:47.226Z,10.03
2023-03-22T10:20:29.006Z,11.17
2023-03-22T10:23:01.469Z,9.57
2023-03-22T10:25:36.473Z,10.03
2023-03-22T10:28:15.405Z,9.20
2023-03-22T10:30:45.236Z,12.03
2023-03-22T10:33:17.822Z,9.33
2023-03-22T10:35:46.827Z,9.20
2023-03-22T10:38:20.654Z,13.87
2023-03-22T10:40:51.207Z,17.33
2023-03-22T10:43:23.778Z,8.70
2023-03-22T10:45:54.174Z,8.43
2023-03-22T10:48:28.693Z,9.70
2023-03-22T10:50:59.452Z,9.53
2023-03-22T10:53:35.934Z,9.77
2023-03-22T10:56:06.910Z,8.50
2023-03-22T10:58:36.258Z,9.07
2023-03-22T11:01:08.293Z,7.23
2023-03-22T11:03:41.577Z,7.53
2023-03-22T11:06:13.273Z,10.60
2023-03-22T11:08:45.074Z,7.80
2023-03-22T11:11:21.059Z,7.70
2023-03-22T11:14:01.030Z,8.43
2023-03-22T11:16:30.520Z,8.27
2023-03-22T11:19:02.060Z,9.10
2023-03-22T11:21:32.744Z,6.20
2023-03-22T11:24:04.767Z,6.97
2023-03-22T11:26:38.996Z,8.07
2023-03-22T11:29:14.972Z,7.33
2023-03-22T11:31:58.154Z,6.67
2023-03-22T11:34:29.396Z,7.27
2023-03-22T11:37:01.227Z,7.23
2023-03-22T11:39:30.621Z,6.00
2023-03-22T11:42:03.793Z,6.90
2023-03-22T11:44:35.532Z,8.20
2023-03-22T11:47:05.327Z,5.17
2023-03-22T11:49:41.143Z,4.80
2023-03-22T11:52:12.640Z,5.87
2023-03-22T11:54:42.748Z,4.20
2023-03-22T11:57:16.821Z,6.47
2023-03-22T11:59:53.806Z,5.10
2023-03-22T12:02:27.871Z,4.67
2023-03-22T12:05:01.797Z,5.43
2023-03-22T12:07:32.598Z,4.33
2023-03-22T12:10:06.426Z,3.77
2023-03-22T12:12:41.213Z,4.53
2023-03-22T12:15:16.422Z,3.23
2023-03-22T12:17:50.152Z,3.87
2023-03-22T12:20:26.393Z,2.33
2023-03-22T12:22:56.216Z,4.00
2023-03-22T12:25:28.362Z,3.00
2023-03-22T12:28:03.594Z,1.83
2023-03-22T12:30:34.911Z,2.57
2023-03-22T12:33:07.644Z,2.10
2023-03-22T12:35:39.984Z,5.37
2023-03-22T12:38:19.017Z,3.23
2023-03-22T12:40:48.694Z,2.57
2023-03-22T12:43:28.854Z,3.37
2023-03-22T12:46:01.011Z,2.53
2023-03-22T12:48:37.333Z,3.00
2023-03-22T12:51:07.717Z,3.03
2023-03-22T12:53:42.908Z,5.40
2023-03-22T12:56:14.236Z,3.90
2023-03-22T12:58:48.012Z,3.63
2023-03-22T13:01:30.068Z,2.67
2023-03-22T13:03:59.462Z,2.90
2023-03-22T13:06:34.131Z,2.90
2023-03-22T13:09:15.705Z,2.57
2023-03-22T13:11:45.890Z,5.73
2023-03-22T13:14:57.713Z,3.13
2023-03-22T13:17:41.862Z,3.03
2023-03-22T13:20:27.801Z,4.10
2023-03-22T13:23:02.184Z,4.10
2023-03-22T13:25:34.881Z,4.17
2023-03-22T13:28:05.175Z,3.27
2023-03-22T13:30:36.884Z,1.57
2023-03-22T13:33:21.248Z,3.10
2023-03-22T13:35:53.933Z,1.80
2023-03-22T13:38:24.746Z,1.97
2023-03-22T13:41:00.667Z,2.80
2023-03-22T13:43:32.789Z,3.40
2023-03-22T13:46:11.295Z,2.70
2023-03-22T13:48:59.595Z,5.30
2023-03-22T13:51:32.019Z,1.73
2023-03-22T13:54:05.507Z,2.30
2023-03-22T13:56:47.899Z,3.10
2023-03-22T13:59:21.328Z,3.73
2023-03-22T14:01:52.477Z,1.47
2023-03-22T14:04:26.644Z,1.97
2023-03-22T14:06:59.911Z,2.53
2023-03-22T14:09:32.345Z,3.20
2023-03-22T14:12:06.559Z,5.93
2023-03-22T14:14:40.881Z,2.17
2023-03-22T14:17:18.820Z,2.80
2023-03-22T14:19:49.782Z,1.90
